Estación de El Tambo INIA

Ultimos registro cada 15 minutos 73
Estación Fecha / Hora Temperatura Humedad Lluvia Velocidad Dirección Radiación Presion
73 El Tambo INIA 01-09-2026 18:00 20,9 49,2 0 0 0 16,9 988
72 El Tambo INIA 01-09-2026 17:45 21,3 46,9 0 0,1 172 22,3 988
71 El Tambo INIA 01-09-2026 17:30 21,7 45,8 0 0 0 28,9 988
70 El Tambo INIA 01-09-2026 17:15 22,1 43,4 0 0 238 41,4 987
69 El Tambo INIA 01-09-2026 17:00 22,6 39 0 0,2 252 73,8 988
68 El Tambo INIA 01-09-2026 16:45 23 38,1 0 0,2 268 145,2 988
67 El Tambo INIA 01-09-2026 16:30 23,2 34,6 0 0,2 260 193,8 988
66 El Tambo INIA 01-09-2026 16:15 23,4 33,8 0 0,1 212 264 988
65 El Tambo INIA 01-09-2026 16:00 23,2 36,3 0 0,5 264 251 988
64 El Tambo INIA 01-09-2026 15:45 23,2 34,3 0 0,5 260 300,3 988
63 El Tambo INIA 01-09-2026 15:30 23,3 34,9 0 0,7 257 354,5 988
62 El Tambo INIA 01-09-2026 15:15 23,3 39,3 0 0,4 264 501 988
61 El Tambo INIA 01-09-2026 15:00 23 38,5 0 0,2 287 516,8 988
60 El Tambo INIA 01-09-2026 14:45 22,7 39,3 0 0,6 266 447 988
59 El Tambo INIA 01-09-2026 14:30 23 40,1 0 0,4 276 508,3 989
58 El Tambo INIA 01-09-2026 14:15 22,8 40,3 0 0 301 466,3 989
57 El Tambo INIA 01-09-2026 14:00 22,8 39,3 0 0 307 659,3 989
56 El Tambo INIA 01-09-2026 13:45 22,5 40 0 0,2 240 629 990
55 El Tambo INIA 01-09-2026 13:30 22,2 36,2 0 0 43 602,1 990
54 El Tambo INIA 01-09-2026 13:15 21,9 42,4 0 0 0 650,1 990
53 El Tambo INIA 01-09-2026 13:00 21,6 38,9 0 0 26 659,3 991
52 El Tambo INIA 01-09-2026 12:45 20,9 43,1 0 0,1 65 624,2 991
51 El Tambo INIA 01-09-2026 12:30 20,6 42,4 0 0,2 59 647,5 991
50 El Tambo INIA 01-09-2026 12:15 20,4 43,4 0 0,1 85 657,7 991
49 El Tambo INIA 01-09-2026 12:00 20,3 43,7 0 0 0 637,7 992
48 El Tambo INIA 01-09-2026 11:45 19 45,4 0 0 72 617,6 992
47 El Tambo INIA 01-09-2026 11:30 18,4 50,3 0 0,1 87 455,9 992
46 El Tambo INIA 01-09-2026 11:15 17,7 51,6 0 0,1 91 441,3 992
45 El Tambo INIA 01-09-2026 11:00 17,1 54 0 0,4 86 397,7 992
44 El Tambo INIA 01-09-2026 10:45 16,6 55,1 0 0,3 84 333,4 992
43 El Tambo INIA 01-09-2026 10:30 16,1 56,5 0 0,6 76 266,5 992
42 El Tambo INIA 01-09-2026 10:15 15,8 60,6 0 0,9 79 270 992
41 El Tambo INIA 01-09-2026 10:00 15,8 62,4 0 0,7 76 233,3 992
40 El Tambo INIA 01-09-2026 09:45 15,9 57,8 0 0,4 82 359,4 992
39 El Tambo INIA 01-09-2026 09:30 15,5 62,3 0 0,1 32 312 993
38 El Tambo INIA 01-09-2026 09:15 14,7 61,1 0 0 73 313,4 992
37 El Tambo INIA 01-09-2026 09:00 13,8 66 0 0 0 275,6 992
36 El Tambo INIA 01-09-2026 08:45 13 72,6 0 0 0 231,8 992
35 El Tambo INIA 01-09-2026 08:30 12,3 74,5 0 0 0 189,4 992
34 El Tambo INIA 01-09-2026 08:15 11,4 77,6 0 0 85 148 992
33 El Tambo INIA 01-09-2026 08:00 10,1 81,5 0 0 0 108,2 992
32 El Tambo INIA 01-09-2026 07:45 9 88,9 0 0 0 34,4 992
31 El Tambo INIA 01-09-2026 07:30 8,8 89,8 0 0 0 9 992
30 El Tambo INIA 01-09-2026 07:15 9,1 89,7 0 0 61 4,1 992
29 El Tambo INIA 01-09-2026 07:00 9,6 88,4 0 0 85 1,1 992
28 El Tambo INIA 01-09-2026 06:45 9 88 0 0,1 77 0,1 992
27 El Tambo INIA 01-09-2026 06:30 9 92,3 0 0 0 0 992
26 El Tambo INIA 01-09-2026 06:15 9,3 90,8 0 0 0 0 992
25 El Tambo INIA 01-09-2026 06:00 9,4 89,7 0 0 63 0 992
24 El Tambo INIA 01-09-2026 05:45 9,2 89,5 0 0 0 0 992
23 El Tambo INIA 01-09-2026 05:30 9,1 91,4 0 0 0 0 991
22 El Tambo INIA 01-09-2026 05:15 9,2 91,6 0 0 0 0 992
21 El Tambo INIA 01-09-2026 05:00 9,4 90,7 0 0 0 0 991
20 El Tambo INIA 01-09-2026 04:45 9,6 90 0 0 0 0 991
19 El Tambo INIA 01-09-2026 04:30 9,6 87,8 0 0 0 0 991
18 El Tambo INIA 01-09-2026 04:15 9,5 89,5 0 0 0 0 991
17 El Tambo INIA 01-09-2026 04:00 9,7 89,2 0 0 0 0 992
16 El Tambo INIA 01-09-2026 03:45 10,1 88,4 0 0 0 0 992
15 El Tambo INIA 01-09-2026 03:30 10,8 84,4 0 0 0 0,1 992
14 El Tambo INIA 01-09-2026 03:15 10,7 80,8 0 0 90 0,1 992
13 El Tambo INIA 01-09-2026 03:00 10,3 83,7 0 0 0 0,1 992
12 El Tambo INIA 01-09-2026 02:45 10,2 86,3 0 0 0 0 992
11 El Tambo INIA 01-09-2026 02:30 10,4 86,3 0 0 0 0 993
10 El Tambo INIA 01-09-2026 02:15 10,6 84,3 0 0 0 0 993
9 El Tambo INIA 01-09-2026 02:00 10,9 82,7 0 0 0 0 993
8 El Tambo INIA 01-09-2026 01:45 11,4 79,9 0 0 0 0,1 993
7 El Tambo INIA 01-09-2026 01:30 11,5 76,5 0 0 100 0,1 993
6 El Tambo INIA 01-09-2026 01:15 11,3 77,2 0 0 110 0 993
5 El Tambo INIA 01-09-2026 01:00 11,2 79 0 0 0 0,1 993
4 El Tambo INIA 01-09-2026 00:45 11,7 75,9 0 0 0 0,1 993
3 El Tambo INIA 01-09-2026 00:30 11,1 75,1 0 0 54 0 993
2 El Tambo INIA 01-09-2026 00:15 11,1 80,7 0 0 0 0,1 993
1 El Tambo INIA 01-09-2026 00:00 11,5 79,9 0 0 0 0,1 993